Time;durP1;ratioP1;P1;durP2;ratioP2;P2;SDS_P1;SDS_P2;PMS_P1;PMS_P2;Temp;Humidity;BMP_temperature;BMP_pressure;BME280_temperature;BME280_humidity;BME280_pressure;Samples;Min_cycle;Max_cycle;Signal;HPM_P1;HPM_P2
2022/08/01 00:00:34;;;;;;;3.10;2.10;;;;;;;21.24;43.42;94812.81;5050229;28;20221;-62
2022/08/01 00:02:59;;;;;;;2.25;2.05;;;;;;;21.12;43.74;94803.91;5050972;28;20233;-62
2022/08/01 00:05:25;;;;;;;2.80;2.00;;;;;;;21.18;43.59;94795.00;5063142;28;20222;-62
2022/08/01 00:07:50;;;;;;;3.13;2.15;;;;;;;21.09;43.64;94807.84;5061231;28;20197;-62
2022/08/01 00:10:16;;;;;;;2.38;2.10;;;;;;;21.00;43.65;94797.66;5044546;28;20233;-62
2022/08/01 00:12:43;;;;;;;2.25;2.08;;;;;;;21.04;43.68;94793.53;5044944;28;20270;-62
2022/08/01 00:15:11;;;;;;;4.60;2.38;;;;;;;21.04;43.50;94799.69;5044631;28;20222;-61
2022/08/01 00:17:37;;;;;;;2.35;2.03;;;;;;;21.00;43.47;94801.16;5042566;28;20245;-62
2022/08/01 00:20:06;;;;;;;5.13;2.08;;;;;;;21.01;43.39;94799.28;5046611;28;20202;-62
2022/08/01 00:22:32;;;;;;;5.90;2.13;;;;;;;21.04;43.08;94798.88;5047063;28;20275;-62
2022/08/01 00:24:57;;;;;;;2.63;2.10;;;;;;;20.98;42.99;94805.91;5063005;28;20543;-61
2022/08/01 00:27:23;;;;;;;2.75;1.92;;;;;;;20.94;43.09;94807.38;5044987;28;20233;-61
2022/08/01 00:29:48;;;;;;;1.92;1.83;;;;;;;20.90;42.97;94808.84;5041494;28;20332;-61
2022/08/01 00:32:14;;;;;;;4.45;2.03;;;;;;;20.91;42.43;94811.31;5044345;28;20214;-62
2022/08/01 00:34:39;;;;;;;2.15;1.95;;;;;;;20.96;42.90;94805.31;5047582;28;20210;-61
2022/08/01 00:37:05;;;;;;;2.20;2.00;;;;;;;21.00;43.82;94806.50;5064831;28;20228;-61
2022/08/01 00:39:32;;;;;;;2.75;2.55;;;;;;;20.85;45.53;94811.38;5045487;28;20271;-62
2022/08/01 00:41:57;;;;;;;4.15;3.83;;;;;;;20.72;47.20;94814.19;5044457;28;20233;-62
2022/08/01 00:44:23;;;;;;;4.10;3.65;;;;;;;20.58;48.05;94811.63;5044365;28;20302;-62
2022/08/01 00:46:48;;;;;;;4.35;4.03;;;;;;;20.62;48.17;94820.84;5043310;28;20224;-62
2022/08/01 00:49:14;;;;;;;3.63;3.33;;;;;;;20.30;48.97;94821.91;5044452;28;20261;-62
2022/08/01 00:51:39;;;;;;;4.20;3.67;;;;;;;20.37;48.74;94814.63;5044713;28;20249;-62
2022/08/01 00:54:05;;;;;;;4.47;4.07;;;;;;;20.48;48.45;94822.78;5046747;28;20240;-61
2022/08/01 00:56:30;;;;;;;4.68;4.28;;;;;;;20.40;48.64;94815.03;5045811;28;20221;-63
2022/08/01 00:58:56;;;;;;;4.25;3.92;;;;;;;20.32;49.22;94817.97;5043736;28;20263;-62
2022/08/01 01:01:22;;;;;;;4.47;4.10;;;;;;;20.23;49.38;94814.75;5044413;28;20294;-62
2022/08/01 01:03:52;;;;;;;4.43;4.10;;;;;;;20.18;49.36;94806.56;5047256;28;20408;-62
2022/08/01 01:06:29;;;;;;;4.72;3.55;;;;;;;20.19;49.56;94802.88;5047361;28;20293;-61
2022/08/01 01:09:07;;;;;;;4.53;4.07;;;;;;;20.08;49.94;94792.88;5045615;28;20225;-61
2022/08/01 01:11:44;;;;;;;4.90;4.15;;;;;;;20.12;49.97;94795.94;5063198;28;20217;-63
2022/08/01 01:14:21;;;;;;;4.72;4.00;;;;;;;20.04;50.12;94792.47;5044869;28;20750;-62
2022/08/01 01:16:47;;;;;;;4.60;4.00;;;;;;;19.83;50.88;94787.50;5043770;28;20216;-61
2022/08/01 01:19:20;;;;;;;4.47;4.18;;;;;;;19.88;50.73;94789.53;5057385;28;20354;-62
2022/08/01 01:22:18;;;;;;;5.95;4.35;;;;;;;19.77;51.03;94793.69;5041686;28;20701;-62
2022/08/01 01:24:49;;;;;;;4.63;3.70;;;;;;;19.81;50.93;94795.72;5027226;28;20312;-62
2022/08/01 01:27:51;;;;;;;4.22;3.80;;;;;;;19.75;51.21;94790.41;5028190;28;20237;-61
2022/08/01 01:30:16;;;;;;;4.72;3.90;;;;;;;19.59;51.53;94783.69;5026359;28;20236;-61
2022/08/01 01:32:49;;;;;;;4.03;3.45;;;;;;;19.69;51.10;94781.41;5024969;28;20252;-62
2022/08/01 01:35:24;;;;;;;4.30;3.15;;;;;;;19.78;50.27;94777.47;5028054;28;20216;-62
2022/08/01 01:37:55;;;;;;;4.50;3.10;;;;;;;19.76;49.80;94771.53;5036701;28;20225;-61
2022/08/01 01:40:23;;;;;;;3.63;3.33;;;;;;;19.77;49.35;94767.81;5023180;28;20221;-62
2022/08/01 01:42:51;;;;;;;3.08;2.80;;;;;;;19.83;48.67;94767.00;5022819;28;20233;-62
2022/08/01 01:45:18;;;;;;;3.15;2.83;;;;;;;20.02;47.60;94767.03;5037883;28;20327;-62
2022/08/01 01:47:45;;;;;;;3.47;2.60;;;;;;;19.90;47.03;94761.59;5028410;28;20229;-65
2022/08/01 01:50:12;;;;;;;3.58;2.60;;;;;;;19.90;46.52;94758.94;5029218;28;20209;-62
2022/08/01 01:52:40;;;;;;;2.40;2.20;;;;;;;19.98;46.03;94765.84;5024841;28;20224;-62
2022/08/01 01:55:08;;;;;;;3.55;2.90;;;;;;;19.92;47.09;94761.38;5027057;28;20292;-62
2022/08/01 01:57:38;;;;;;;2.47;2.10;;;;;;;19.88;45.64;94752.97;5027741;28;20237;-62
2022/08/01 02:00:06;;;;;;;2.38;2.15;;;;;;;19.91;45.12;94763.22;5026002;28;20384;-62
2022/08/01 02:02:34;;;;;;;2.17;1.95;;;;;;;19.93;43.99;94758.50;5044574;28;20257;-61
2022/08/01 02:05:00;;;;;;;4.90;1.83;;;;;;;19.94;43.70;94753.97;5046277;28;20205;-62
2022/08/01 02:07:27;;;;;;;2.28;1.85;;;;;;;19.91;42.40;94743.72;5028399;28;20221;-62
2022/08/01 02:09:54;;;;;;;2.20;2.00;;;;;;;19.86;42.99;94751.56;5041719;28;20233;-62
2022/08/01 02:12:21;;;;;;;1.90;1.60;;;;;;;19.90;42.03;94747.44;5030199;28;20223;-62
2022/08/01 02:14:48;;;;;;;2.45;1.67;;;;;;;19.94;39.67;94738.78;5026124;28;20256;-63
2022/08/01 02:17:17;;;;;;;3.03;1.75;;;;;;;19.99;39.37;94746.97;5039975;28;20252;-61
2022/08/01 02:19:42;;;;;;;2.20;1.80;;;;;;;19.68;41.19;94742.44;5046671;28;20220;-62
2022/08/01 02:22:11;;;;;;;3.85;2.00;;;;;;;19.65;42.24;94742.84;5046899;28;20351;-63
2022/08/01 02:24:58;;;;;;;3.20;1.70;;;;;;;19.72;42.28;94746.31;5033321;28;20223;-63
2022/08/01 02:27:34;;;;;;;3.65;1.80;;;;;;;19.86;40.15;94746.22;5022489;28;20299;-62
2022/08/01 02:30:06;;;;;;;2.65;1.80;;;;;;;19.73;41.28;94733.81;5027537;28;20241;-62
2022/08/01 02:32:37;;;;;;;1.75;1.65;;;;;;;19.63;42.53;94747.56;5043807;28;20217;-61
2022/08/01 02:35:07;;;;;;;3.42;1.73;;;;;;;19.64;42.90;94746.53;5042771;28;20288;-62
2022/08/01 02:37:36;;;;;;;1.77;1.65;;;;;;;19.63;43.10;94747.56;5040416;28;20241;-61
2022/08/01 02:40:03;;;;;;;1.98;1.77;;;;;;;19.57;43.40;94756.44;5045825;28;20229;-62
2022/08/01 02:42:32;;;;;;;3.97;2.08;;;;;;;19.51;43.20;94757.28;5048082;28;20221;-61
2022/08/01 02:44:58;;;;;;;1.73;1.63;;;;;;;19.50;43.42;94748.47;5056219;28;20363;-62
2022/08/01 02:47:27;;;;;;;3.85;2.50;;;;;;;19.52;44.62;94750.94;5045936;28;20236;-62
2022/08/01 02:49:55;;;;;;;2.40;2.22;;;;;;;19.45;46.04;94753.63;5045830;28;20258;-62
2022/08/01 02:52:24;;;;;;;3.65;2.80;;;;;;;19.25;47.15;94747.59;5041012;28;20227;-62
2022/08/01 02:54:53;;;;;;;2.83;2.58;;;;;;;19.21;47.28;94743.69;5047166;28;20304;-62
2022/08/01 02:57:21;;;;;;;3.63;2.40;;;;;;;19.35;47.48;94751.44;5033642;28;20353;-62
2022/08/01 02:59:49;;;;;;;6.68;2.60;;;;;;;19.28;47.77;94747.97;5061000;28;20236;-62
2022/08/01 03:02:17;;;;;;;3.38;2.70;;;;;;;19.18;48.22;94748.41;5040652;28;20212;-62
2022/08/01 03:04:43;;;;;;;3.30;2.45;;;;;;;18.94;48.89;94741.13;5023085;28;20237;-62
2022/08/01 03:07:12;;;;;;;4.78;2.63;;;;;;;19.04;48.68;94749.50;5022443;28;20279;-61
2022/08/01 03:09:42;;;;;;;6.32;2.67;;;;;;;19.11;47.76;94752.13;5031416;28;20271;-62
2022/08/01 03:12:13;;;;;;;2.63;2.42;;;;;;;19.07;48.41;94756.25;5040907;28;20229;-61
2022/08/01 03:14:41;;;;;;;5.70;2.58;;;;;;;19.07;48.18;94750.94;5060981;28;20225;-63
2022/08/01 03:17:08;;;;;;;2.95;2.13;;;;;;;19.05;48.43;94750.31;5039596;28;20300;-62
2022/08/01 03:19:37;;;;;;;3.83;2.58;;;;;;;19.09;48.42;94754.19;5040348;28;20460;-63
2022/08/01 03:22:06;;;;;;;4.18;2.60;;;;;;;19.17;48.63;94751.31;5034546;28;20228;-62
2022/08/01 03:24:33;;;;;;;2.78;2.58;;;;;;;19.04;48.86;94746.84;5038771;28;20225;-62
2022/08/01 03:26:58;;;;;;;3.58;2.70;;;;;;;18.93;49.66;94752.81;5042013;28;20263;-62
2022/08/01 03:29:27;;;;;;;3.33;2.78;;;;;;;18.92;50.03;94754.69;5048351;28;20294;-63
2022/08/01 03:31:53;;;;;;;5.20;2.95;;;;;;;18.93;50.04;94753.63;5050717;28;20379;-62
2022/08/01 03:34:21;;;;;;;4.57;2.65;;;;;;;19.00;49.87;94755.44;5048881;28;20281;-62
2022/08/01 03:37:11;;;;;;;4.40;3.15;;;;;;;18.95;50.33;94756.91;5045000;28;20229;-62
2022/08/01 03:40:01;;;;;;;3.95;2.67;;;;;;;18.92;50.43;94760.00;5061141;28;20221;-63
2022/08/01 03:43:02;;;;;;;4.88;2.97;;;;;;;18.99;50.19;94759.16;5037777;28;20260;-62
2022/08/01 03:45:38;;;;;;;3.30;3.03;;;;;;;19.02;50.00;94756.06;4982420;28;20310;-62
2022/08/01 03:48:11;;;;;;;3.28;2.97;;;;;;;19.03;50.03;94765.69;4991225;28;20295;-62
2022/08/01 03:50:41;;;;;;;6.65;3.40;;;;;;;19.07;49.54;94759.72;4992871;28;20234;-62
2022/08/01 03:53:09;;;;;;;3.78;3.33;;;;;;;19.05;50.10;94755.63;4985590;28;20206;-62
2022/08/01 03:55:37;;;;;;;6.20;3.10;;;;;;;18.93;50.41;94753.63;5005444;28;20222;-61
2022/08/01 03:58:04;;;;;;;5.40;3.15;;;;;;;19.07;50.14;94764.25;4988331;28;20225;-62
2022/08/01 04:00:31;;;;;;;10.27;3.78;;;;;;;19.09;50.00;94760.34;4987830;28;20270;-61
2022/08/01 04:02:56;;;;;;;5.30;3.45;;;;;;;19.04;50.07;94759.34;4985953;28;20393;-61
2022/08/01 04:05:22;;;;;;;4.40;3.67;;;;;;;19.06;50.45;94755.44;4992157;28;20210;-61
2022/08/01 04:07:55;;;;;;;4.07;3.50;;;;;;;19.14;50.48;94765.06;5007463;28;20212;-61
2022/08/01 04:10:24;;;;;;;4.35;3.95;;;;;;;19.01;51.31;94765.91;4974090;28;20234;-60
2022/08/01 04:12:50;;;;;;;7.63;3.97;;;;;;;19.07;51.14;94769.56;4994487;28;20231;-61
2022/08/01 04:15:16;;;;;;;5.72;3.50;;;;;;;19.07;51.16;94767.72;4982556;28;20222;-61
2022/08/01 04:17:42;;;;;;;4.10;3.70;;;;;;;19.18;50.94;94763.59;4985624;28;20705;-60
2022/08/01 04:20:09;;;;;;;5.93;4.05;;;;;;;19.20;50.44;94771.38;4997843;28;20206;-61
2022/08/01 04:22:35;;;;;;;4.50;4.10;;;;;;;19.21;50.83;94767.69;5040821;28;20297;-63
2022/08/01 04:25:04;;;;;;;4.95;3.35;;;;;;;19.25;50.79;94774.25;5037688;28;20297;-60
2022/08/01 04:27:32;;;;;;;4.38;3.92;;;;;;;19.21;50.92;94765.00;5027605;28;20277;-61
2022/08/01 04:29:59;;;;;;;5.18;3.63;;;;;;;19.21;51.11;94773.81;5025459;28;20239;-60
2022/08/01 04:32:30;;;;;;;5.00;3.85;;;;;;;19.28;50.91;94763.97;5027095;28;20236;-60
2022/08/01 04:34:59;;;;;;;4.85;3.95;;;;;;;19.36;50.97;94769.03;5037071;28;20216;-61
2022/08/01 04:37:25;;;;;;;4.72;3.60;;;;;;;19.38;50.88;94769.66;5024033;28;20222;-60
2022/08/01 04:39:54;;;;;;;6.05;3.60;;;;;;;19.51;50.58;94774.13;5027281;28;20226;-60
2022/08/01 04:42:19;;;;;;;4.80;4.07;;;;;;;19.49;50.31;94765.50;5029041;28;20257;-60
2022/08/01 04:44:45;;;;;;;4.35;3.95;;;;;;;19.56;49.94;94762.78;5035262;28;20244;-60
2022/08/01 04:47:11;;;;;;;4.90;4.32;;;;;;;19.63;49.70;94758.25;5043284;28;20199;-62
2022/08/01 04:49:37;;;;;;;4.00;3.63;;;;;;;19.61;49.12;94755.78;5044124;28;20271;-61
2022/08/01 04:52:03;;;;;;;5.97;3.53;;;;;;;19.73;48.16;94768.50;5043536;28;20224;-58
2022/08/01 04:54:33;;;;;;;3.60;3.22;;;;;;;19.52;48.68;94769.59;5030809;28;20214;-59
2022/08/01 04:57:01;;;;;;;4.25;3.20;;;;;;;19.74;47.47;94768.25;5028603;28;20219;-59
2022/08/01 04:59:39;;;;;;;4.57;3.40;;;;;;;20.00;46.28;94763.78;5029612;28;20229;-59
2022/08/01 05:02:05;;;;;;;4.80;3.47;;;;;;;19.98;46.37;94761.31;5026971;28;20209;-60
2022/08/01 05:04:31;;;;;;;3.88;3.47;;;;;;;20.12;45.19;94761.22;5027942;28;20202;-60
2022/08/01 05:06:57;;;;;;;4.68;4.00;;;;;;;20.12;45.93;94748.69;5007764;28;20230;-59
2022/08/01 05:09:22;;;;;;;5.07;3.90;;;;;;;20.07;46.07;94756.53;5055895;28;20236;-60
2022/08/01 05:11:48;;;;;;;4.43;4.03;;;;;;;20.08;46.84;94757.38;5034279;28;20222;-61
2022/08/01 05:14:13;;;;;;;6.45;5.00;;;;;;;20.18;46.78;94741.66;5025650;28;20238;-61
2022/08/01 05:16:38;;;;;;;5.82;4.72;;;;;;;20.28;46.53;94742.81;5028870;28;20214;-62
2022/08/01 05:19:04;;;;;;;6.05;4.72;;;;;;;20.41;46.26;94749.91;5024852;28;20275;-60
2022/08/01 05:21:29;;;;;;;7.00;4.68;;;;;;;20.38;45.62;94741.50;5033615;28;20338;-61
2022/08/01 05:23:55;;;;;;;6.57;4.60;;;;;;;20.48;45.26;94731.97;5032115;28;20219;-61
2022/08/01 05:26:20;;;;;;;7.15;4.55;;;;;;;20.53;45.15;94743.81;5020186;28;20214;-60
2022/08/01 05:28:46;;;;;;;7.95;4.50;;;;;;;20.62;44.78;94743.38;5023226;28;20213;-59
2022/08/01 05:31:11;;;;;;;7.35;4.20;;;;;;;20.76;44.33;94748.56;5044959;28;20245;-59
2022/08/01 05:33:37;;;;;;;8.75;4.40;;;;;;;20.75;44.12;94741.59;5048368;28;20324;-60
2022/08/01 05:36:02;;;;;;;5.03;4.00;;;;;;;20.81;43.79;94746.06;5044036;28;20237;-60
2022/08/01 05:38:28;;;;;;;6.30;3.90;;;;;;;20.88;43.46;94752.97;5026353;28;20226;-60
2022/08/01 05:40:53;;;;;;;7.45;3.95;;;;;;;20.91;43.47;94741.03;5021121;28;20248;-63
2022/08/01 05:43:19;;;;;;;7.60;4.50;;;;;;;21.01;42.76;94745.81;5038946;28;20216;-63
2022/08/01 05:45:45;;;;;;;5.85;4.05;;;;;;;21.13;42.60;94749.41;5024354;28;20229;-61
2022/08/01 05:48:11;;;;;;;9.20;4.68;;;;;;;21.21;42.35;94742.94;5026277;28;20222;-63
2022/08/01 05:50:37;;;;;;;7.57;4.20;;;;;;;21.28;42.14;94741.00;5027758;28;20222;-64
2022/08/01 05:53:02;;;;;;;5.15;3.65;;;;;;;21.33;41.18;94749.16;5024665;28;20668;-62
2022/08/01 05:55:28;;;;;;;5.53;3.53;;;;;;;21.36;41.46;94748.72;5021054;28;20318;-63
2022/08/01 05:57:53;;;;;;;4.80;3.60;;;;;;;21.45;41.32;94760.75;5002835;28;20218;-64
2022/08/01 06:00:19;;;;;;;8.07;3.83;;;;;;;21.50;40.27;94755.56;5020504;28;20226;-63
2022/08/01 06:02:44;;;;;;;9.57;3.78;;;;;;;21.49;40.67;94748.59;5022254;28;20230;-63
2022/08/01 06:05:10;;;;;;;4.85;3.78;;;;;;;21.62;40.52;94757.47;5022315;28;20206;-63
2022/08/01 06:07:36;;;;;;;4.32;3.28;;;;;;;21.61;39.19;94751.28;5027031;28;20224;-64
2022/08/01 06:10:02;;;;;;;3.58;2.95;;;;;;;21.68;39.38;94751.19;5022257;28;20278;-62
2022/08/01 06:12:27;;;;;;;5.25;2.75;;;;;;;21.62;38.15;94752.09;5035123;28;20285;-64
2022/08/01 06:14:53;;;;;;;5.07;2.22;;;;;;;21.69;37.60;94750.16;5040533;28;20308;-63
2022/08/01 06:17:18;;;;;;;2.75;2.55;;;;;;;21.66;37.44;94755.97;5039688;28;20251;-62
2022/08/01 06:19:44;;;;;;;2.72;2.10;;;;;;;21.70;37.09;94749.09;5039174;28;20197;-61
2022/08/01 06:22:09;;;;;;;2.38;2.13;;;;;;;21.64;36.56;94763.41;5042343;28;20225;-65
2022/08/01 06:24:35;;;;;;;3.03;1.77;;;;;;;21.63;36.56;94759.09;5045079;28;20233;-65
2022/08/01 06:27:01;;;;;;;3.03;2.20;;;;;;;21.64;36.79;94761.53;5059715;28;20229;-64
2022/08/01 06:29:26;;;;;;;3.33;2.08;;;;;;;21.66;36.87;94767.50;5062104;28;20289;-64
2022/08/01 06:31:52;;;;;;;3.15;2.10;;;;;;;21.70;36.65;94762.50;5042522;28;20325;-62
2022/08/01 06:34:17;;;;;;;2.38;2.15;;;;;;;21.75;36.76;94757.28;5063036;28;20228;-63
2022/08/01 06:36:43;;;;;;;3.70;2.40;;;;;;;21.69;36.42;94758.19;5042728;28;20232;-62
2022/08/01 06:39:08;;;;;;;4.50;2.38;;;;;;;21.70;36.54;94746.44;5061421;28;20232;-63
2022/08/01 06:41:34;;;;;;;3.30;2.33;;;;;;;21.84;36.79;94755.94;5059065;28;20309;-66
2022/08/01 06:44:02;;;;;;;6.57;2.42;;;;;;;21.90;36.52;94751.50;5063113;28;20201;-65
2022/08/01 06:46:27;;;;;;;2.65;2.45;;;;;;;21.86;36.82;94759.16;5043505;28;20221;-63
2022/08/01 06:48:52;;;;;;;3.78;2.17;;;;;;;21.78;36.62;94749.63;5056829;28;20228;-64
2022/08/01 06:51:20;;;;;;;2.30;2.10;;;;;;;21.89;36.51;94748.03;5056430;28;20252;-63
2022/08/01 06:53:45;;;;;;;2.92;2.40;;;;;;;22.02;36.65;94741.63;5041509;28;20217;-62
2022/08/01 06:56:11;;;;;;;4.32;2.65;;;;;;;22.01;36.58;94730.13;5041582;28;20201;-62
2022/08/01 06:58:36;;;;;;;2.95;2.45;;;;;;;22.05;36.99;94735.00;5043625;28;20214;-63
2022/08/01 07:01:05;;;;;;;2.63;2.42;;;;;;;22.02;36.73;94731.75;5042037;28;20225;-63
2022/08/01 07:03:31;;;;;;;3.72;2.20;;;;;;;21.92;36.91;94720.78;5032947;28;20253;-64
2022/08/01 07:05:57;;;;;;;2.97;2.08;;;;;;;21.90;37.47;94722.88;5041687;28;20307;-63
2022/08/01 07:08:22;;;;;;;5.22;2.22;;;;;;;22.01;37.16;94737.34;5041400;28;20276;-64
2022/08/01 07:10:48;;;;;;;3.47;2.42;;;;;;;22.07;37.67;94716.84;5037748;28;20233;-62
2022/08/01 07:13:16;;;;;;;4.03;2.60;;;;;;;22.19;37.40;94710.50;5039339;28;20225;-63
2022/08/01 07:15:41;;;;;;;2.70;2.28;;;;;;;22.25;37.12;94730.19;5037683;28;20293;-62
2022/08/01 07:18:06;;;;;;;3.28;2.40;;;;;;;22.21;37.27;94723.66;5039875;28;20305;-63
2022/08/01 07:20:32;;;;;;;5.20;2.40;;;;;;;22.26;37.80;94729.13;5056872;28;20224;-61
2022/08/01 07:22:57;;;;;;;3.28;2.45;;;;;;;22.37;37.06;94747.09;5044508;28;20206;-63
2022/08/01 07:25:23;;;;;;;3.10;2.60;;;;;;;22.31;37.28;94731.13;5042005;28;20217;-63
2022/08/01 07:27:48;;;;;;;4.30;2.30;;;;;;;22.45;37.19;94724.47;5023341;28;20241;-63
2022/08/01 07:30:14;;;;;;;4.07;2.78;;;;;;;22.53;37.12;94726.00;5037287;28;20246;-63
2022/08/01 07:32:40;;;;;;;5.93;2.58;;;;;;;22.57;37.12;94732.53;5021282;28;20365;-62
2022/08/01 07:35:06;;;;;;;3.58;2.30;;;;;;;22.60;36.86;94721.34;5026834;28;20202;-65
2022/08/01 07:37:31;;;;;;;2.85;2.58;;;;;;;22.64;37.51;94722.50;5023892;28;20209;-64
2022/08/01 07:39:56;;;;;;;5.13;2.90;;;;;;;22.80;36.74;94721.81;5022165;28;20218;-64
2022/08/01 07:42:22;;;;;;;4.25;3.10;;;;;;;22.75;36.34;94720.84;5029884;28;20765;-64
2022/08/01 07:44:47;;;;;;;3.25;2.38;;;;;;;22.74;35.34;94729.97;5038971;28;20229;-63
2022/08/01 07:47:13;;;;;;;4.20;2.47;;;;;;;22.84;35.78;94722.16;5057388;28;20213;-65
2022/08/01 07:49:39;;;;;;;2.55;2.30;;;;;;;23.01;36.15;94730.31;5040771;28;20262;-65
2022/08/01 07:52:04;;;;;;;3.08;2.83;;;;;;;23.13;35.32;94725.75;5044263;28;20222;-64
2022/08/01 07:54:31;;;;;;;3.35;2.30;;;;;;;23.24;34.70;94726.75;5042504;28;20251;-63
2022/08/01 07:56:57;;;;;;;2.90;2.20;;;;;;;23.19;35.06;94732.84;5038653;28;20236;-63
2022/08/01 07:59:23;;;;;;;2.33;2.03;;;;;;;22.99;35.27;94729.72;5056681;28;20904;-66
2022/08/01 08:01:50;;;;;;;2.90;2.20;;;;;;;22.93;35.46;94731.44;5041631;28;20237;-65
2022/08/01 08:04:16;;;;;;;5.15;2.67;;;;;;;22.94;35.14;94732.28;5040296;28;20325;-66
2022/08/01 08:06:43;;;;;;;4.18;2.60;;;;;;;22.93;35.71;94727.97;5055838;28;20488;-65
2022/08/01 08:09:08;;;;;;;3.60;2.55;;;;;;;22.98;35.47;94734.28;5055201;28;20222;-66
2022/08/01 08:11:33;;;;;;;3.65;2.80;;;;;;;23.05;35.59;94742.19;5041780;28;20222;-63
2022/08/01 08:13:59;;;;;;;4.90;2.40;;;;;;;23.02;36.05;94734.63;5040089;28;20275;-65
2022/08/01 08:16:24;;;;;;;3.28;2.47;;;;;;;23.15;35.77;94729.00;5044274;28;20229;-65
2022/08/01 08:18:50;;;;;;;3.78;2.50;;;;;;;23.22;35.60;94736.91;5043986;28;20272;-64
2022/08/01 08:21:15;;;;;;;2.30;2.10;;;;;;;23.17;35.95;94734.94;5044336;28;20230;-64
2022/08/01 08:26:25;;;;;;;3.88;2.13;;;;;;;23.05;34.82;94734.16;5045060;28;20256;-64
2022/08/01 08:28:50;;;;;;;3.35;2.60;;;;;;;23.03;35.60;94734.38;5064887;28;20221;-63
2022/08/01 08:31:16;;;;;;;2.50;1.90;;;;;;;22.99;35.37;94740.44;5041688;28;20237;-61
2022/08/01 08:33:41;;;;;;;4.25;2.50;;;;;;;22.98;35.35;94728.09;5043784;28;20225;-64
2022/08/01 08:36:07;;;;;;;3.25;2.95;;;;;;;22.96;35.66;94740.88;5059330;28;20216;-63
2022/08/01 08:38:32;;;;;;;3.75;2.50;;;;;;;22.84;36.19;94733.69;5043791;28;20241;-63
2022/08/01 08:40:58;;;;;;;2.75;2.20;;;;;;;23.12;35.77;94737.50;5040535;28;20208;-63
2022/08/01 08:43:25;;;;;;;4.32;2.40;;;;;;;23.07;35.60;94729.38;5043497;28;20225;-63
2022/08/01 08:45:52;;;;;;;2.35;1.98;;;;;;;23.16;35.32;94737.88;5047267;28;20765;-65
2022/08/01 08:48:18;;;;;;;4.20;2.30;;;;;;;23.07;34.96;94735.56;5047645;28;20257;-62
2022/08/01 08:50:45;;;;;;;4.25;2.15;;;;;;;23.11;35.04;94727.84;5044899;28;20229;-64
2022/08/01 08:53:13;;;;;;;5.18;2.08;;;;;;;23.17;35.45;94724.19;5042158;28;20208;-64
2022/08/01 08:55:42;;;;;;;2.30;2.10;;;;;;;23.23;35.11;94728.63;5044430;28;20248;-64
2022/08/01 08:58:13;;;;;;;4.28;2.42;;;;;;;23.25;34.96;94723.81;5043920;28;20226;-64
2022/08/01 09:00:41;;;;;;;4.68;2.28;;;;;;;23.29;34.54;94730.34;5059740;28;20229;-64
2022/08/01 09:03:07;;;;;;;2.20;2.10;;;;;;;23.38;33.23;94732.66;5039852;28;20228;-64
2022/08/01 09:05:33;;;;;;;2.20;2.00;;;;;;;23.43;33.48;94717.47;5044189;28;20221;-65
2022/08/01 09:07:58;;;;;;;3.53;2.00;;;;;;;23.64;33.79;94736.66;5059840;28;20231;-63
2022/08/01 09:10:23;;;;;;;2.53;2.33;;;;;;;23.63;33.56;94725.13;5043254;28;20221;-65
2022/08/01 09:13:21;;;;;;;3.70;2.35;;;;;;;23.62;33.26;94738.75;5057997;28;20267;-64
2022/08/01 09:15:53;;;;;;;2.53;2.30;;;;;;;23.58;33.52;94733.06;5006385;28;20230;-64
2022/08/01 09:18:34;;;;;;;2.20;2.00;;;;;;;23.54;32.10;94729.22;5023870;28;20226;-64
2022/08/01 09:21:14;;;;;;;4.35;2.08;;;;;;;23.51;31.99;94722.47;5014217;28;20373;-64
2022/08/01 09:23:53;;;;;;;3.70;2.30;;;;;;;23.62;32.87;94720.78;4999850;28;20389;-65
2022/08/01 09:26:21;;;;;;;6.85;3.08;;;;;;;23.77;32.93;94710.38;5001283;28;20218;-64
2022/08/01 09:28:47;;;;;;;5.15;2.50;;;;;;;23.98;33.04;94698.09;5001956;28;20199;-62
2022/08/01 09:31:18;;;;;;;2.97;2.22;;;;;;;23.97;31.19;94703.72;5000501;28;20234;-63
2022/08/01 09:33:55;;;;;;;2.83;2.20;;;;;;;23.91;31.38;94704.69;4986113;28;20293;-63
2022/08/01 09:36:23;;;;;;;2.35;1.98;;;;;;;24.04;31.39;94701.69;5002390;28;20262;-63
2022/08/01 09:38:50;;;;;;;2.30;2.10;;;;;;;24.20;31.08;94703.56;4986813;28;20265;-63
2022/08/01 09:41:28;;;;;;;2.20;2.10;;;;;;;24.24;31.64;94708.44;4986957;28;20295;-64
2022/08/01 09:43:53;;;;;;;2.40;2.20;;;;;;;24.25;30.90;94700.16;5017997;28;20207;-63
2022/08/01 09:46:18;;;;;;;2.75;2.20;;;;;;;24.27;31.00;94694.50;4989691;28;20234;-64
2022/08/01 09:49:01;;;;;;;5.00;2.08;;;;;;;24.51;30.34;94698.69;4985953;28;20230;-63
2022/08/01 09:51:35;;;;;;;3.50;2.00;;;;;;;24.67;30.90;94717.72;5009689;28;20269;-63
2022/08/01 09:54:04;;;;;;;7.13;2.30;;;;;;;24.61;31.21;94698.03;5016115;28;20225;-64
2022/08/01 09:56:45;;;;;;;4.25;2.10;;;;;;;24.67;30.98;94699.72;5040694;28;20304;-62
2022/08/01 09:59:11;;;;;;;3.40;2.50;;;;;;;24.84;31.19;94703.19;5055198;28;20213;-63
2022/08/01 10:01:48;;;;;;;3.03;2.40;;;;;;;24.83;32.58;94708.81;5023012;28;20205;-63
2022/08/01 10:04:16;;;;;;;3.28;2.47;;;;;;;24.82;32.28;94688.38;5039085;28;20227;-65
2022/08/01 10:06:44;;;;;;;4.40;2.13;;;;;;;24.76;30.92;94695.56;5039231;28;20226;-64
2022/08/01 10:09:12;;;;;;;2.50;2.30;;;;;;;24.90;30.91;94695.19;5029026;28;20301;-64
2022/08/01 10:11:41;;;;;;;2.40;2.20;;;;;;;25.06;29.98;94691.63;5022078;28;20217;-64
2022/08/01 10:14:07;;;;;;;2.95;2.40;;;;;;;25.27;30.21;94696.22;5029626;28;20260;-64
2022/08/01 10:16:38;;;;;;;3.15;2.38;;;;;;;25.46;30.27;94688.63;5042066;28;20328;-64
2022/08/01 10:19:07;;;;;;;2.45;2.30;;;;;;;25.68;30.66;94682.38;5026849;28;20229;-64
2022/08/01 10:21:34;;;;;;;3.95;2.13;;;;;;;25.84;29.84;94689.56;5016330;28;20234;-63
2022/08/01 10:24:01;;;;;;;2.92;2.25;;;;;;;25.70;29.80;94661.41;5022727;28;20581;-64
2022/08/01 10:26:31;;;;;;;3.13;2.05;;;;;;;25.65;29.27;94689.09;5026580;28;20300;-64
2022/08/01 10:28:57;;;;;;;2.30;2.10;;;;;;;25.62;29.57;94680.72;5057422;28;20225;-63
2022/08/01 10:31:23;;;;;;;2.88;2.13;;;;;;;25.79;29.37;94678.72;5025351;28;20237;-63
2022/08/01 10:33:50;;;;;;;3.28;2.10;;;;;;;25.99;29.62;94669.25;5020988;28;20258;-63
2022/08/01 10:36:19;;;;;;;3.03;2.10;;;;;;;26.22;29.48;94668.88;5022557;28;20233;-63
2022/08/01 10:38:45;;;;;;;2.55;2.33;;;;;;;26.19;29.43;94680.19;5035824;28;20223;-62
2022/08/01 10:41:15;;;;;;;2.38;2.03;;;;;;;26.15;29.96;94677.19;5021317;28;20213;-63
2022/08/01 10:43:40;;;;;;;3.03;2.63;;;;;;;26.24;29.91;94684.81;5022948;28;20217;-64
2022/08/01 10:46:07;;;;;;;2.40;2.20;;;;;;;26.20;29.58;94676.44;5026556;28;20214;-65
2022/08/01 10:48:46;;;;;;;2.53;2.33;;;;;;;26.17;30.01;94683.16;5023535;28;20227;-64
2022/08/01 10:51:12;;;;;;;2.28;2.05;;;;;;;26.23;29.97;94688.56;5022420;28;20225;-64
2022/08/01 10:53:46;;;;;;;2.92;2.20;;;;;;;26.24;29.16;94672.13;5051107;28;20233;-64
2022/08/01 10:56:11;;;;;;;3.10;2.70;;;;;;;26.37;29.63;94671.69;5022547;28;20210;-63
2022/08/01 10:58:40;;;;;;;2.22;2.08;;;;;;;26.68;28.48;94669.25;5041887;28;20262;-63
2022/08/01 11:01:19;;;;;;;2.50;1.98;;;;;;;26.84;28.24;94662.03;5040334;28;20213;-63
2022/08/01 11:04:08;;;;;;;3.33;2.33;;;;;;;27.05;28.32;94676.41;5025575;28;20221;-62
2022/08/01 11:06:33;;;;;;;2.70;2.50;;;;;;;26.92;27.99;94666.09;5021227;28;20218;-66
2022/08/01 11:09:42;;;;;;;2.47;2.03;;;;;;;26.98;28.30;94684.75;5022854;28;20259;-63
2022/08/01 11:12:16;;;;;;;2.40;2.20;;;;;;;26.98;28.12;94665.06;4909132;29;20233;-64
2022/08/01 11:15:00;;;;;;;2.40;2.20;;;;;;;27.05;28.77;94661.06;4908511;29;20229;-63
2022/08/01 11:17:37;;;;;;;4.07;2.35;;;;;;;27.21;28.46;94659.28;4924029;29;20272;-63
2022/08/01 11:20:12;;;;;;;2.42;2.22;;;;;;;27.46;27.92;94668.50;4911262;29;20211;-63
2022/08/01 11:23:00;;;;;;;3.30;1.95;;;;;;;27.54;27.54;94668.00;4912267;29;20312;-63
2022/08/01 11:25:37;;;;;;;2.20;2.00;;;;;;;27.47;27.67;94662.84;4943209;29;20216;-64
2022/08/01 11:28:17;;;;;;;3.40;2.00;;;;;;;27.62;27.05;94655.88;4942059;28;20741;-65
2022/08/01 11:30:45;;;;;;;3.03;2.03;;;;;;;27.47;27.49;94664.72;4926801;29;20240;-63
2022/08/01 11:33:12;;;;;;;3.85;1.98;;;;;;;27.34;27.85;94640.94;4929353;29;20237;-64
2022/08/01 11:36:09;;;;;;;4.95;1.90;;;;;;;27.43;28.17;94656.34;4928152;29;20233;-64
2022/08/01 11:38:36;;;;;;;3.67;1.95;;;;;;;27.13;28.18;94646.25;4944898;29;20235;-64
2022/08/01 11:41:12;;;;;;;2.42;2.22;;;;;;;27.22;28.22;94647.38;4931259;29;20307;-64
2022/08/01 11:44:16;;;;;;;2.38;2.15;;;;;;;27.54;27.77;94654.50;4943380;29;20279;-65